createdAt,value
2018-04-30T00:01:26.246Z,12.27
2018-04-30T00:03:52.608Z,12.16
2018-04-30T00:06:19.035Z,11.96
2018-04-30T00:08:45.397Z,11.85
2018-04-30T00:11:11.832Z,11.76
2018-04-30T00:13:38.320Z,11.78
2018-04-30T00:16:04.736Z,11.68
2018-04-30T00:18:31.097Z,11.67
2018-04-30T00:20:57.417Z,11.80
2018-04-30T00:23:23.919Z,11.64
2018-04-30T00:25:50.328Z,11.45
2018-04-30T00:28:16.642Z,11.55
2018-04-30T00:30:43.116Z,11.77
2018-04-30T00:33:09.447Z,11.95
2018-04-30T00:35:35.863Z,11.91
2018-04-30T00:38:02.180Z,12.22
2018-04-30T00:40:28.522Z,12.01
2018-04-30T00:42:54.948Z,11.81
2018-04-30T00:45:21.409Z,11.74
2018-04-30T00:47:47.732Z,11.56
2018-04-30T00:50:14.119Z,11.52
2018-04-30T00:52:40.503Z,11.37
2018-04-30T00:55:06.937Z,11.27
2018-04-30T00:57:33.325Z,11.25
2018-04-30T00:59:59.722Z,11.16
2018-04-30T01:02:26.063Z,11.08
2018-04-30T01:04:52.391Z,11.04
2018-04-30T01:07:18.902Z,10.99
2018-04-30T01:09:45.297Z,10.91
2018-04-30T01:12:11.769Z,10.91
2018-04-30T01:14:38.173Z,10.86
2018-04-30T01:17:04.584Z,10.84
2018-04-30T01:19:31.017Z,10.79
2018-04-30T01:21:57.532Z,10.81
2018-04-30T01:24:23.967Z,10.75
2018-04-30T01:26:50.380Z,10.75
2018-04-30T01:29:16.758Z,10.74
2018-04-30T01:31:43.155Z,10.70
2018-04-30T01:34:09.497Z,10.70
2018-04-30T01:36:35.889Z,10.73
2018-04-30T01:39:02.297Z,10.74
2018-04-30T01:41:28.624Z,10.72
2018-04-30T01:43:54.994Z,10.78
2018-04-30T01:46:21.451Z,10.78
2018-04-30T01:48:47.866Z,10.81
2018-04-30T01:51:14.272Z,10.84
2018-04-30T01:53:40.613Z,10.79
2018-04-30T01:56:07.090Z,10.81
2018-04-30T01:58:33.496Z,10.77
2018-04-30T02:00:59.889Z,10.76
2018-04-30T02:03:26.729Z,10.76
2018-04-30T02:05:53.213Z,10.72
2018-04-30T02:08:19.638Z,10.76
2018-04-30T02:10:46.003Z,10.73
2018-04-30T02:13:12.448Z,10.71
2018-04-30T02:15:38.876Z,10.71
2018-04-30T02:18:05.248Z,10.68
2018-04-30T02:20:31.626Z,10.65
2018-04-30T02:22:58.000Z,10.55
2018-04-30T02:25:25.259Z,10.52
2018-04-30T02:27:51.715Z,10.48
2018-04-30T02:30:18.112Z,10.38
2018-04-30T02:32:44.541Z,10.40
2018-04-30T02:35:10.910Z,10.29
2018-04-30T02:37:37.246Z,10.21
2018-04-30T02:40:03.594Z,10.17
2018-04-30T02:42:29.991Z,10.08
2018-04-30T02:44:56.358Z,10.06
2018-04-30T02:47:22.750Z,9.97
2018-04-30T02:49:49.171Z,9.93
2018-04-30T02:52:15.511Z,9.89
2018-04-30T02:54:41.901Z,9.86
2018-04-30T02:57:08.373Z,9.81
2018-04-30T02:59:34.773Z,9.83
2018-04-30T03:02:01.167Z,9.84
2018-04-30T03:04:27.631Z,9.73
2018-04-30T03:06:54.014Z,9.73
2018-04-30T03:09:20.435Z,9.68
2018-04-30T03:11:46.857Z,9.65
2018-04-30T03:14:13.294Z,9.71
2018-04-30T03:16:39.708Z,9.64
2018-04-30T03:19:06.099Z,9.60
2018-04-30T03:21:32.468Z,9.57
2018-04-30T03:23:58.986Z,9.56
2018-04-30T03:26:25.505Z,9.60
2018-04-30T03:28:51.898Z,9.63
2018-04-30T03:31:18.213Z,9.71
2018-04-30T03:33:44.586Z,9.68
2018-04-30T03:36:11.040Z,9.70
2018-04-30T03:38:37.440Z,9.74
2018-04-30T03:41:03.803Z,9.77
2018-04-30T03:43:30.158Z,9.91
2018-04-30T03:45:56.766Z,10.15
2018-04-30T03:48:23.257Z,10.29
2018-04-30T03:50:49.661Z,10.48
2018-04-30T03:53:15.977Z,10.54
2018-04-30T03:55:42.419Z,10.77
2018-04-30T03:58:08.782Z,11.19
2018-04-30T04:00:47.449Z,11.30
2018-04-30T04:03:26.150Z,11.11
2018-04-30T04:05:59.853Z,11.30
2018-04-30T04:08:26.273Z,11.58
2018-04-30T04:10:52.648Z,12.35
2018-04-30T04:13:19.044Z,12.91
2018-04-30T04:15:45.806Z,13.40
2018-04-30T04:18:12.261Z,14.23
2018-04-30T04:20:38.640Z,15.12
2018-04-30T04:23:05.049Z,15.55
2018-04-30T04:25:31.500Z,15.19
2018-04-30T04:27:57.908Z,15.39
2018-04-30T04:30:24.245Z,15.83
2018-04-30T04:32:50.656Z,16.42
2018-04-30T04:35:17.076Z,15.87
2018-04-30T04:37:43.512Z,15.24
2018-04-30T04:40:10.055Z,14.74
2018-04-30T04:42:36.642Z,14.91
2018-04-30T04:45:03.112Z,14.81
2018-04-30T04:47:29.595Z,15.16
2018-04-30T04:49:56.073Z,15.65
2018-04-30T04:52:22.400Z,16.20
2018-04-30T04:54:48.855Z,15.93
2018-04-30T04:57:15.452Z,15.91
2018-04-30T04:59:41.861Z,16.33
2018-04-30T05:02:08.193Z,16.52
2018-04-30T05:04:34.591Z,16.36
2018-04-30T05:07:01.150Z,16.81
2018-04-30T05:09:27.579Z,16.89
2018-04-30T05:11:53.963Z,16.64
2018-04-30T05:14:20.341Z,16.17
2018-04-30T05:16:46.817Z,15.42
2018-04-30T05:19:13.326Z,14.77
2018-04-30T05:21:39.723Z,14.02
2018-04-30T05:24:06.256Z,13.59
2018-04-30T05:26:32.779Z,13.69
2018-04-30T05:28:59.156Z,14.28
2018-04-30T05:31:25.610Z,15.28
2018-04-30T05:33:52.116Z,16.42
2018-04-30T05:36:18.646Z,16.83
2018-04-30T05:38:45.097Z,15.94
2018-04-30T05:41:11.504Z,16.82
2018-04-30T05:43:37.852Z,17.05
2018-04-30T05:46:04.304Z,17.40
2018-04-30T05:48:30.711Z,17.86
2018-04-30T05:50:57.105Z,17.64
2018-04-30T05:53:23.507Z,17.17
2018-04-30T05:55:49.981Z,16.78
2018-04-30T05:58:16.350Z,16.58
2018-04-30T06:00:42.806Z,16.71
2018-04-30T06:03:09.241Z,17.17
2018-04-30T06:05:35.730Z,17.48
2018-04-30T06:08:02.166Z,18.53
2018-04-30T06:10:28.597Z,18.58
2018-04-30T06:12:55.013Z,18.50
2018-04-30T06:15:21.354Z,18.69
2018-04-30T06:17:47.828Z,19.93
2018-04-30T06:20:14.220Z,19.19
2018-04-30T06:22:40.579Z,18.86
2018-04-30T06:25:07.049Z,17.67
2018-04-30T06:27:33.460Z,17.41
2018-04-30T06:29:59.937Z,17.60
2018-04-30T06:32:26.412Z,17.13
2018-04-30T06:34:52.737Z,17.67
2018-04-30T06:37:19.291Z,17.85
2018-04-30T06:39:45.687Z,18.16
2018-04-30T06:42:12.047Z,18.37
2018-04-30T06:44:38.401Z,19.16
2018-04-30T06:47:04.912Z,18.67
2018-04-30T06:49:31.436Z,18.44
2018-04-30T06:51:57.943Z,18.36
2018-04-30T06:54:25.255Z,18.13
2018-04-30T06:56:52.499Z,17.77
2018-04-30T06:59:18.935Z,17.88
2018-04-30T07:01:45.381Z,18.24
2018-04-30T07:04:12.768Z,17.91
2018-04-30T07:06:39.317Z,17.52
2018-04-30T07:09:05.729Z,18.17
2018-04-30T07:11:32.087Z,18.23
2018-04-30T07:13:58.430Z,18.55
2018-04-30T07:16:24.930Z,18.71
2018-04-30T07:18:51.271Z,18.56
2018-04-30T07:21:17.768Z,18.73
2018-04-30T07:23:44.289Z,19.31
2018-04-30T07:26:10.757Z,19.66
2018-04-30T07:28:37.161Z,19.46
2018-04-30T07:31:03.635Z,19.40
2018-04-30T07:33:30.072Z,19.55
2018-04-30T07:35:56.519Z,19.40
2018-04-30T07:38:22.895Z,19.57
2018-04-30T07:40:49.226Z,20.20
2018-04-30T07:43:15.621Z,20.18
2018-04-30T07:45:42.026Z,21.06
2018-04-30T07:48:08.400Z,20.77
2018-04-30T07:50:34.754Z,20.32
2018-04-30T07:53:01.174Z,20.44
2018-04-30T07:55:27.778Z,19.74
2018-04-30T07:57:54.426Z,20.04
2018-04-30T08:00:21.051Z,20.66
2018-04-30T08:02:47.507Z,21.22
2018-04-30T08:05:13.903Z,20.55
2018-04-30T08:07:40.349Z,20.10
2018-04-30T08:10:06.742Z,20.88
2018-04-30T08:12:33.106Z,20.83
2018-04-30T08:14:59.698Z,21.15
2018-04-30T08:17:26.140Z,20.82
2018-04-30T08:19:52.489Z,20.93
2018-04-30T08:22:18.814Z,21.01
2018-04-30T08:24:45.195Z,20.11
2018-04-30T08:27:11.585Z,19.94
2018-04-30T08:29:37.980Z,20.02
2018-04-30T08:32:04.436Z,20.31
2018-04-30T08:34:30.876Z,20.47
2018-04-30T08:36:57.335Z,20.91
2018-04-30T08:39:23.825Z,21.61
2018-04-30T08:41:50.380Z,21.99
2018-04-30T08:44:16.755Z,21.98
2018-04-30T08:46:43.166Z,22.19
2018-04-30T08:49:09.560Z,22.06
2018-04-30T08:51:36.261Z,22.53
2018-04-30T08:54:02.863Z,22.76
2018-04-30T08:56:29.410Z,22.64
2018-04-30T08:58:55.829Z,22.65
2018-04-30T09:01:22.397Z,22.22
2018-04-30T09:03:48.918Z,21.76
2018-04-30T09:06:15.422Z,22.05
2018-04-30T09:08:41.840Z,21.87
2018-04-30T09:11:08.345Z,21.79
2018-04-30T09:13:34.885Z,21.83
2018-04-30T09:16:01.444Z,21.84
2018-04-30T09:18:27.915Z,22.26
2018-04-30T09:20:54.471Z,22.95
2018-04-30T09:23:20.974Z,23.60
2018-04-30T09:25:47.541Z,24.78
2018-04-30T09:28:14.016Z,25.27
2018-04-30T09:30:44.520Z,25.01
2018-04-30T09:33:11.011Z,24.44
2018-04-30T09:35:37.831Z,24.21
2018-04-30T09:38:04.303Z,24.21
2018-04-30T09:40:30.825Z,25.05
2018-04-30T09:42:57.219Z,25.57
2018-04-30T09:45:23.744Z,24.97
2018-04-30T09:47:50.149Z,24.74
2018-04-30T09:50:16.628Z,24.88
2018-04-30T09:52:43.059Z,24.70
2018-04-30T09:55:09.407Z,24.94
2018-04-30T09:57:35.853Z,24.34
2018-04-30T10:00:02.581Z,24.07
2018-04-30T10:02:29.002Z,23.73
2018-04-30T10:04:55.425Z,24.07
2018-04-30T10:07:22.783Z,24.11
2018-04-30T10:09:49.144Z,23.86
2018-04-30T10:12:15.770Z,23.86
2018-04-30T10:14:42.207Z,24.06
2018-04-30T10:17:08.757Z,23.89
2018-04-30T10:19:35.151Z,24.38
2018-04-30T10:22:01.598Z,24.72
2018-04-30T10:24:28.323Z,24.73
2018-04-30T10:26:54.772Z,24.83
2018-04-30T10:29:21.162Z,25.30
2018-04-30T10:31:47.584Z,26.08
2018-04-30T10:34:14.089Z,26.38
2018-04-30T10:36:40.782Z,26.59
2018-04-30T10:39:07.263Z,26.52
2018-04-30T10:41:33.662Z,26.49
2018-04-30T10:44:00.043Z,26.79
2018-04-30T10:46:26.790Z,26.29
2018-04-30T10:48:53.464Z,26.50
2018-04-30T10:51:19.872Z,26.77
2018-04-30T10:53:46.320Z,26.22
2018-04-30T10:56:12.690Z,25.10
2018-04-30T10:58:39.192Z,25.47
2018-04-30T11:01:05.566Z,25.35
2018-04-30T11:03:31.977Z,25.30
2018-04-30T11:05:58.452Z,25.09
2018-04-30T11:08:25.013Z,25.43
2018-04-30T11:10:51.554Z,25.17
2018-04-30T11:13:18.076Z,25.11
2018-04-30T11:15:44.506Z,24.94
2018-04-30T11:18:11.121Z,24.69
2018-04-30T11:20:37.643Z,24.50
2018-04-30T11:23:04.072Z,24.67
2018-04-30T11:25:30.443Z,25.06
2018-04-30T11:27:56.932Z,25.20
2018-04-30T11:30:23.361Z,25.12
2018-04-30T11:32:50.110Z,25.20
2018-04-30T11:35:17.420Z,24.86
2018-04-30T11:37:43.914Z,25.11
2018-04-30T11:40:10.339Z,24.96
2018-04-30T11:42:38.368Z,25.06
2018-04-30T11:45:04.821Z,25.14
2018-04-30T11:47:31.287Z,24.58
2018-04-30T11:49:57.956Z,24.52
2018-04-30T11:52:24.441Z,24.09
2018-04-30T11:54:50.793Z,23.99
2018-04-30T11:57:17.302Z,24.42
2018-04-30T11:59:43.754Z,24.49
2018-04-30T12:02:10.143Z,24.65
2018-04-30T12:04:36.737Z,24.30
2018-04-30T12:11:52.265Z,24.79
2018-04-30T12:14:18.682Z,24.30
2018-04-30T12:16:45.234Z,24.14
2018-04-30T12:19:11.715Z,24.06
2018-04-30T12:21:38.082Z,24.59
2018-04-30T12:24:04.489Z,24.79
2018-04-30T12:26:30.975Z,24.70
2018-04-30T12:28:57.731Z,24.80
2018-04-30T12:31:24.308Z,24.66
2018-04-30T12:33:50.818Z,24.40
2018-04-30T12:36:17.689Z,23.70
2018-04-30T12:38:44.107Z,24.03
2018-04-30T12:41:10.540Z,24.46
2018-04-30T12:43:37.635Z,24.38
2018-04-30T12:46:04.151Z,24.64
2018-04-30T12:48:30.943Z,24.62
2018-04-30T12:50:57.647Z,24.42
2018-04-30T12:53:24.274Z,24.23
2018-04-30T12:55:50.786Z,24.29
2018-04-30T12:58:17.481Z,24.15
2018-04-30T13:00:43.979Z,24.04
2018-04-30T13:03:10.576Z,24.17
2018-04-30T13:05:37.309Z,24.18
2018-04-30T13:08:03.739Z,24.18
2018-04-30T13:10:30.198Z,24.43
2018-04-30T13:12:56.728Z,24.42
2018-04-30T13:15:23.336Z,24.36
2018-04-30T13:17:50.183Z,24.43
2018-04-30T13:20:17.624Z,24.45
2018-04-30T13:22:44.297Z,24.55
2018-04-30T13:55:08.105Z,23.51
2018-04-30T13:57:34.524Z,23.29
2018-04-30T14:00:01.187Z,23.14
2018-04-30T14:02:27.615Z,23.23
2018-04-30T14:04:54.556Z,23.03
2018-04-30T14:07:21.172Z,23.05
2018-04-30T14:09:47.765Z,23.31
2018-04-30T14:12:14.166Z,23.24
2018-04-30T14:14:40.646Z,23.43
2018-04-30T14:17:07.051Z,23.55
2018-04-30T14:19:33.614Z,23.65
2018-04-30T14:22:00.126Z,23.88
2018-04-30T14:24:26.746Z,23.66
2018-04-30T14:26:53.177Z,23.85
2018-04-30T14:29:19.623Z,23.72
2018-04-30T14:31:46.154Z,23.46
2018-04-30T14:34:12.493Z,23.25
2018-04-30T14:36:38.889Z,23.35
2018-04-30T14:39:05.382Z,23.54
2018-04-30T14:41:33.686Z,23.49
2018-04-30T14:44:00.103Z,23.54
2018-04-30T14:46:26.546Z,23.75
2018-04-30T14:48:53.034Z,23.63
2018-04-30T14:51:19.467Z,23.78
2018-04-30T14:53:45.937Z,23.86
2018-04-30T14:56:12.387Z,23.37
2018-04-30T14:58:38.931Z,23.25
2018-04-30T15:01:05.495Z,23.18
2018-04-30T15:03:32.061Z,22.96
2018-04-30T15:05:58.498Z,23.10
2018-04-30T15:08:25.063Z,23.15
2018-04-30T15:10:51.631Z,23.14
2018-04-30T15:13:18.025Z,23.28
2018-04-30T15:15:44.476Z,23.31
2018-04-30T15:18:11.030Z,23.29
2018-04-30T15:20:37.481Z,23.25
2018-04-30T15:23:04.455Z,23.18
2018-04-30T15:25:30.940Z,23.08
2018-04-30T15:27:57.424Z,23.18
2018-04-30T15:30:24.088Z,23.17
2018-04-30T15:32:50.517Z,22.98
2018-04-30T15:35:16.934Z,23.00
2018-04-30T15:37:43.466Z,23.02
2018-04-30T15:40:09.893Z,22.89
2018-04-30T15:42:36.347Z,22.93
2018-04-30T15:45:02.879Z,22.95
2018-04-30T15:47:29.289Z,23.07
2018-04-30T15:49:55.672Z,22.87
2018-04-30T15:52:22.092Z,22.95
2018-04-30T15:54:48.498Z,22.98
2018-04-30T15:57:14.977Z,22.86
2018-04-30T15:59:41.479Z,22.68
2018-04-30T16:02:07.957Z,22.72
2018-04-30T16:04:34.373Z,22.57
2018-04-30T16:07:00.817Z,22.40
2018-04-30T16:09:27.354Z,22.22
2018-04-30T16:11:53.978Z,22.11
2018-04-30T16:14:21.686Z,21.89
2018-04-30T16:16:47.995Z,21.75
2018-04-30T16:19:14.423Z,21.53
2018-04-30T16:21:40.855Z,21.27
2018-04-30T16:24:07.942Z,21.21
2018-04-30T16:26:34.355Z,21.05
2018-04-30T16:29:00.906Z,20.80
2018-04-30T16:31:27.286Z,20.74
2018-04-30T16:33:53.746Z,20.63
2018-04-30T16:36:20.521Z,20.52
2018-04-30T16:38:47.013Z,20.36
2018-04-30T16:41:13.435Z,20.18
2018-04-30T16:43:39.902Z,20.09
2018-04-30T16:46:06.273Z,19.92
2018-04-30T16:48:32.777Z,19.82
2018-04-30T16:50:59.280Z,19.68
2018-04-30T16:53:25.656Z,19.55
2018-04-30T16:55:52.078Z,19.44
2018-04-30T16:58:18.562Z,19.20
2018-04-30T17:00:44.951Z,19.14
2018-04-30T17:03:11.428Z,19.06
2018-04-30T17:05:37.869Z,18.68
2018-04-30T17:08:05.192Z,18.68
2018-04-30T17:10:31.864Z,18.43
2018-04-30T17:12:58.326Z,18.32
2018-04-30T17:15:24.714Z,18.25
2018-04-30T17:17:51.597Z,18.14
2018-04-30T17:20:18.138Z,18.09
2018-04-30T17:22:44.575Z,18.10
2018-04-30T17:25:11.111Z,18.05
2018-04-30T17:27:37.651Z,18.00
2018-04-30T17:30:04.148Z,17.83
2018-04-30T17:32:30.758Z,17.83
2018-04-30T17:34:57.509Z,17.70
2018-04-30T17:37:24.015Z,17.66
2018-04-30T17:39:50.521Z,17.57
2018-04-30T17:42:17.073Z,17.60
2018-04-30T17:44:43.703Z,17.49
2018-04-30T17:47:10.482Z,17.49
2018-04-30T17:49:38.044Z,17.39
2018-04-30T17:52:05.513Z,17.36
2018-04-30T17:54:32.723Z,17.45
2018-04-30T17:59:26.131Z,17.24
2018-04-30T18:01:52.637Z,17.30
2018-04-30T18:04:19.412Z,17.32
2018-04-30T18:06:46.542Z,17.24
2018-04-30T18:09:13.275Z,17.29
2018-04-30T18:11:39.776Z,17.21
2018-04-30T18:14:06.403Z,17.11
2018-04-30T18:16:33.022Z,17.10
2018-04-30T18:18:59.809Z,17.12
2018-04-30T18:21:26.294Z,17.02
2018-04-30T18:23:52.744Z,16.99
2018-04-30T18:26:19.194Z,16.83
2018-04-30T18:28:45.597Z,16.74
2018-04-30T18:31:12.043Z,16.72
2018-04-30T18:33:38.748Z,16.70
2018-04-30T18:36:05.379Z,16.67
2018-04-30T18:38:31.998Z,16.65
2018-04-30T18:40:58.530Z,16.57
2018-04-30T18:43:26.067Z,16.62
2018-04-30T18:45:52.530Z,16.45
2018-04-30T18:48:19.115Z,16.42
2018-04-30T18:50:46.231Z,16.31
2018-04-30T18:53:12.973Z,16.22
2018-04-30T18:58:06.099Z,16.06
2018-04-30T19:00:32.686Z,16.14
2018-04-30T19:02:59.078Z,16.12
2018-04-30T19:05:25.468Z,15.92
2018-04-30T19:07:51.953Z,16.06
2018-04-30T19:10:18.453Z,16.09
2018-04-30T19:12:44.978Z,16.04
2018-04-30T19:15:11.382Z,15.91
2018-04-30T19:17:38.452Z,15.80
2018-04-30T19:20:05.191Z,16.02
2018-04-30T19:22:31.685Z,16.18
2018-04-30T19:24:58.137Z,16.32
2018-04-30T19:27:24.548Z,16.42
2018-04-30T19:29:51.202Z,16.46
2018-04-30T19:32:17.635Z,16.37
2018-04-30T19:34:44.081Z,16.26
2018-04-30T19:37:10.520Z,16.15
2018-04-30T19:39:36.988Z,16.31
2018-04-30T19:42:03.387Z,16.41
2018-04-30T19:44:29.746Z,16.49
2018-04-30T19:46:56.184Z,16.42
2018-04-30T19:49:22.730Z,16.46
2018-04-30T19:51:49.364Z,16.30
2018-04-30T19:54:15.859Z,16.24
2018-04-30T19:56:42.254Z,16.23
2018-04-30T19:59:08.750Z,16.05
2018-04-30T20:01:35.328Z,15.90
2018-04-30T20:04:01.827Z,15.82
2018-04-30T20:06:28.225Z,15.77
2018-04-30T20:08:54.883Z,15.74
2018-04-30T20:11:21.270Z,15.72
2018-04-30T20:13:47.696Z,15.67
2018-04-30T20:16:14.268Z,15.63
2018-04-30T20:18:40.838Z,15.56
2018-04-30T20:21:07.511Z,15.50
2018-04-30T20:23:35.829Z,15.39
2018-04-30T20:26:02.422Z,15.32
2018-04-30T20:28:29.012Z,15.29
2018-04-30T20:30:59.189Z,15.32
2018-04-30T20:33:25.573Z,15.15
2018-04-30T20:35:51.935Z,15.07
2018-04-30T20:38:18.633Z,15.03
2018-04-30T20:40:44.981Z,14.95
2018-04-30T20:43:11.407Z,14.94
2018-04-30T20:45:39.412Z,14.88
2018-04-30T20:48:06.047Z,14.78
2018-04-30T20:50:32.713Z,14.68
2018-04-30T20:52:59.142Z,14.69
2018-04-30T20:55:25.549Z,14.68
2018-04-30T20:57:51.997Z,14.63
2018-04-30T21:00:18.394Z,14.55
2018-04-30T21:02:45.204Z,14.58
2018-04-30T21:05:11.637Z,14.57
2018-04-30T21:07:38.148Z,14.57
2018-04-30T21:10:04.630Z,14.52
2018-04-30T21:12:31.114Z,14.49
2018-04-30T21:14:57.573Z,14.46
2018-04-30T21:17:23.997Z,14.45
2018-04-30T21:19:50.474Z,14.44
2018-04-30T21:22:17.066Z,14.41
2018-04-30T21:24:43.549Z,14.36
2018-04-30T21:27:10.034Z,14.37
2018-04-30T21:29:36.449Z,14.35
2018-04-30T21:32:02.861Z,14.30
2018-04-30T21:34:34.215Z,14.39
2018-04-30T21:37:00.610Z,14.41
2018-04-30T21:39:27.393Z,14.35
2018-04-30T21:41:53.887Z,14.31
2018-04-30T21:44:20.249Z,14.25
2018-04-30T21:46:46.664Z,14.21
2018-04-30T21:49:13.197Z,14.18
2018-04-30T21:51:39.681Z,14.12
2018-04-30T21:54:06.211Z,14.05
2018-04-30T21:56:32.742Z,14.03
2018-04-30T21:58:59.150Z,14.00
2018-04-30T22:01:25.544Z,13.93
2018-04-30T22:03:51.932Z,13.89
2018-04-30T22:06:18.434Z,13.83
2018-04-30T22:08:45.214Z,13.78
2018-04-30T22:11:11.623Z,13.75
2018-04-30T22:13:37.952Z,13.74
2018-04-30T22:16:04.376Z,13.70
2018-04-30T22:18:30.833Z,13.64
2018-04-30T22:20:57.187Z,13.63
2018-04-30T22:23:23.577Z,13.61
2018-04-30T22:25:50.090Z,13.52
2018-04-30T22:28:16.475Z,13.49
2018-04-30T22:30:42.875Z,13.49
2018-04-30T22:33:09.467Z,13.46
2018-04-30T22:35:36.205Z,13.45
2018-04-30T22:38:02.637Z,13.43
2018-04-30T22:40:29.009Z,13.35
2018-04-30T22:42:55.394Z,13.35
2018-04-30T22:45:21.912Z,13.32
2018-04-30T22:47:48.307Z,13.27
2018-04-30T22:50:14.738Z,13.19
2018-04-30T22:52:41.157Z,13.15
2018-04-30T22:55:07.564Z,13.12
2018-04-30T22:57:34.004Z,13.08
2018-04-30T23:00:00.458Z,13.03
2018-04-30T23:02:26.809Z,12.98
2018-04-30T23:04:53.405Z,12.96
2018-04-30T23:07:19.849Z,12.89
2018-04-30T23:09:46.329Z,12.86
2018-04-30T23:12:12.695Z,12.89
2018-04-30T23:14:39.042Z,12.85
2018-04-30T23:17:05.447Z,12.82
2018-04-30T23:19:32.167Z,12.77
2018-04-30T23:21:58.529Z,12.69
2018-04-30T23:24:25.028Z,12.64
2018-04-30T23:26:51.614Z,12.59
2018-04-30T23:29:18.103Z,12.54
2018-04-30T23:31:44.483Z,12.52
2018-04-30T23:34:10.837Z,12.43
2018-04-30T23:36:37.189Z,12.38
2018-04-30T23:39:03.728Z,12.36
2018-04-30T23:41:30.052Z,12.36
2018-04-30T23:43:56.380Z,12.33
2018-04-30T23:46:22.753Z,12.35
2018-04-30T23:48:49.200Z,12.35
2018-04-30T23:51:15.613Z,12.30
2018-04-30T23:53:42.050Z,12.32
2018-04-30T23:56:08.494Z,12.24
2018-04-30T23:58:34.923Z,12.14
